createdAt,value
2016-06-30T00:00:09.632Z,17.27
2016-06-30T00:01:09.578Z,17.36
2016-06-30T00:02:09.585Z,17.31
2016-06-30T00:03:09.969Z,17.28
2016-06-30T00:04:09.592Z,17.31
2016-06-30T00:05:09.609Z,17.3
2016-06-30T00:06:09.739Z,17.28
2016-06-30T00:07:09.619Z,17.27
2016-06-30T00:08:09.806Z,17.3
2016-06-30T00:09:09.641Z,17.31
2016-06-30T00:10:09.676Z,17.27
2016-06-30T00:11:09.659Z,17.2
2016-06-30T00:12:09.586Z,17.27
2016-06-30T00:13:09.634Z,17.31
2016-06-30T00:14:09.596Z,17.28
2016-06-30T00:15:09.708Z,17.31
2016-06-30T00:16:09.805Z,17.24
2016-06-30T00:17:09.681Z,17.32
2016-06-30T00:18:09.691Z,17.35
2016-06-30T00:19:09.684Z,17.42
2016-06-30T00:20:09.685Z,17.31
2016-06-30T00:21:09.634Z,17.27
2016-06-30T00:22:09.620Z,17.32
2016-06-30T00:23:09.729Z,17.31
2016-06-30T00:24:09.889Z,17.22
2016-06-30T00:25:09.662Z,17.31
2016-06-30T00:26:09.741Z,17.36
2016-06-30T00:27:09.666Z,17.3
2016-06-30T00:28:09.666Z,17.3
2016-06-30T00:29:09.650Z,17.35
2016-06-30T00:30:09.700Z,17.27
2016-06-30T00:31:09.612Z,17.28
2016-06-30T00:32:09.773Z,17.4
2016-06-30T00:33:09.618Z,17.36
2016-06-30T00:34:09.634Z,17.32
2016-06-30T00:35:09.732Z,17.32
2016-06-30T00:36:09.686Z,17.35
2016-06-30T00:37:09.702Z,17.32
2016-06-30T00:38:09.674Z,17.32
2016-06-30T00:39:09.753Z,17.31
2016-06-30T00:40:09.700Z,17.3
2016-06-30T00:41:09.757Z,17.35
2016-06-30T00:42:09.738Z,17.3
2016-06-30T00:43:09.744Z,17.25
2016-06-30T00:44:09.716Z,17.31
2016-06-30T00:45:09.740Z,17.35
2016-06-30T00:46:09.902Z,17.3
2016-06-30T00:47:10.012Z,17.35
2016-06-30T00:48:09.744Z,17.31
2016-06-30T00:49:09.683Z,17.31
2016-06-30T00:50:09.832Z,17.3
2016-06-30T00:51:09.710Z,17.24
2016-06-30T00:52:09.743Z,17.32
2016-06-30T00:53:09.805Z,17.24
2016-06-30T00:54:09.809Z,17.3
2016-06-30T00:55:09.800Z,17.25
2016-06-30T00:56:09.946Z,17.27
2016-06-30T00:57:09.720Z,17.28
2016-06-30T00:58:09.791Z,17.28
2016-06-30T00:59:09.820Z,17.39
2016-06-30T01:00:09.756Z,17.31
2016-06-30T01:01:09.764Z,17.39
2016-06-30T01:02:09.849Z,17.35
2016-06-30T01:03:10.075Z,17.38
2016-06-30T01:04:09.795Z,17.35
2016-06-30T01:05:09.739Z,17.27
2016-06-30T01:06:09.755Z,17.42
2016-06-30T01:07:09.812Z,17.38
2016-06-30T01:08:09.747Z,17.39
2016-06-30T01:09:09.852Z,17.35
2016-06-30T01:10:09.767Z,17.4
2016-06-30T01:11:09.766Z,17.32
2016-06-30T01:12:09.752Z,17.3
2016-06-30T01:13:09.805Z,17.31
2016-06-30T01:14:09.794Z,17.3
2016-06-30T01:15:09.802Z,17.28
2016-06-30T01:16:09.827Z,17.27
2016-06-30T01:17:09.859Z,17.25
2016-06-30T01:18:09.843Z,17.22
2016-06-30T01:19:09.869Z,17.22
2016-06-30T01:20:09.832Z,17.18
2016-06-30T01:21:09.830Z,17.2
2016-06-30T01:22:10.437Z,17.21
2016-06-30T01:23:09.886Z,17.18
2016-06-30T01:24:09.825Z,17.15
2016-06-30T01:25:09.811Z,17.12
2016-06-30T01:26:09.858Z,17.18
2016-06-30T01:27:09.784Z,17.06
2016-06-30T01:28:09.871Z,17.12
2016-06-30T01:29:09.813Z,17.1
2016-06-30T01:30:09.988Z,17.1
2016-06-30T01:31:09.806Z,17.13
2016-06-30T01:32:09.826Z,17.15
2016-06-30T01:33:09.878Z,17.15
2016-06-30T01:34:09.893Z,17.09
2016-06-30T01:35:09.812Z,17.07
2016-06-30T01:36:09.886Z,17.06
2016-06-30T01:37:10.201Z,17.15
2016-06-30T01:38:10.452Z,17.07
2016-06-30T01:39:09.820Z,17.12
2016-06-30T01:40:09.923Z,17.09
2016-06-30T01:41:09.843Z,17.02
2016-06-30T01:42:09.860Z,17.09
2016-06-30T01:43:09.855Z,17.07
2016-06-30T01:44:09.906Z,17.06
2016-06-30T01:45:09.824Z,17.07
2016-06-30T01:46:09.909Z,17.06
2016-06-30T01:47:09.817Z,16.92
2016-06-30T01:48:09.884Z,16.95
2016-06-30T01:49:10.050Z,16.87
2016-06-30T01:50:09.855Z,17.02
2016-06-30T01:51:09.916Z,17
2016-06-30T01:52:10.050Z,16.91
2016-06-30T01:53:09.891Z,16.91
2016-06-30T01:54:10.135Z,16.91
2016-06-30T01:55:10.002Z,16.91
2016-06-30T01:56:09.879Z,16.92
2016-06-30T01:57:09.815Z,16.95
2016-06-30T01:58:09.896Z,16.88
2016-06-30T01:59:09.938Z,16.91
2016-06-30T02:00:10.669Z,16.95
2016-06-30T02:01:09.849Z,16.94
2016-06-30T02:02:09.908Z,16.94
2016-06-30T02:03:10.030Z,16.95
2016-06-30T02:04:10.161Z,16.87
2016-06-30T02:05:09.930Z,16.85
2016-06-30T02:06:09.882Z,16.85
2016-06-30T02:07:09.981Z,16.92
2016-06-30T02:08:10.040Z,16.94
2016-06-30T02:09:09.940Z,16.87
2016-06-30T02:10:09.884Z,16.82
2016-06-30T02:11:09.929Z,16.73
2016-06-30T02:12:09.902Z,16.81
2016-06-30T02:13:09.960Z,16.8
2016-06-30T02:14:10.270Z,16.9
2016-06-30T02:15:09.966Z,16.81
2016-06-30T02:16:09.988Z,16.76
2016-06-30T02:17:09.952Z,16.8
2016-06-30T02:18:09.982Z,16.82
2016-06-30T02:19:09.943Z,16.66
2016-06-30T02:20:09.928Z,16.77
2016-06-30T02:21:09.856Z,16.73
2016-06-30T02:22:09.902Z,16.77
2016-06-30T02:23:09.906Z,16.69
2016-06-30T02:24:09.935Z,16.72
2016-06-30T02:25:09.932Z,16.76
2016-06-30T02:26:10.029Z,16.74
2016-06-30T02:27:10.118Z,16.67
2016-06-30T02:28:09.984Z,16.63
2016-06-30T02:29:10.027Z,16.72
2016-06-30T02:30:10.318Z,16.69
2016-06-30T02:31:10.201Z,16.66
2016-06-30T02:32:09.981Z,16.62
2016-06-30T02:33:10.592Z,16.65
2016-06-30T02:34:09.983Z,16.67
2016-06-30T02:35:10.122Z,16.67
2016-06-30T02:36:09.969Z,16.63
2016-06-30T02:37:10.430Z,16.67
2016-06-30T02:38:10.722Z,16.73
2016-06-30T02:39:10.310Z,16.65
2016-06-30T02:40:10.053Z,16.66
2016-06-30T02:41:10.091Z,16.7
2016-06-30T02:42:10.295Z,16.62
2016-06-30T02:43:10.447Z,16.66
2016-06-30T02:44:09.977Z,16.63
2016-06-30T02:45:10.189Z,16.62
2016-06-30T02:46:10.033Z,16.65
2016-06-30T02:47:10.233Z,16.55
2016-06-30T02:48:10.261Z,16.67
2016-06-30T02:49:10.574Z,16.62
2016-06-30T02:50:10.447Z,16.65
2016-06-30T02:51:10.194Z,16.59
2016-06-30T02:52:10.727Z,16.58
2016-06-30T02:53:10.149Z,16.67
2016-06-30T02:54:10.037Z,16.66
2016-06-30T02:55:10.184Z,16.58
2016-06-30T02:56:10.741Z,16.63
2016-06-30T02:57:10.052Z,16.67
2016-06-30T02:58:10.158Z,16.57
2016-06-30T02:59:10.028Z,16.62
2016-06-30T03:00:10.141Z,16.59
2016-06-30T03:01:10.198Z,16.57
2016-06-30T03:02:10.295Z,16.59
2016-06-30T03:03:10.041Z,16.62
2016-06-30T03:04:10.332Z,16.49
2016-06-30T03:05:10.201Z,16.57
2016-06-30T03:06:10.738Z,16.52
2016-06-30T03:07:10.290Z,16.59
2016-06-30T03:08:10.143Z,16.52
2016-06-30T03:09:10.123Z,16.51
2016-06-30T03:10:10.362Z,16.48
2016-06-30T03:11:10.352Z,16.52
2016-06-30T03:12:10.174Z,16.52
2016-06-30T03:13:10.171Z,16.55
2016-06-30T03:14:10.885Z,16.49
2016-06-30T03:15:10.174Z,16.52
2016-06-30T03:16:10.303Z,16.52
2016-06-30T03:17:10.525Z,16.54
2016-06-30T03:18:10.298Z,16.49
2016-06-30T03:19:10.365Z,16.51
2016-06-30T03:20:10.329Z,16.48
2016-06-30T03:21:10.258Z,16.48
2016-06-30T03:22:10.438Z,16.55
2016-06-30T03:23:10.589Z,16.47
2016-06-30T03:24:10.723Z,16.58
2016-06-30T03:25:10.556Z,16.48
2016-06-30T03:26:10.355Z,16.51
2016-06-30T03:27:10.545Z,16.47
2016-06-30T03:28:10.539Z,16.45
2016-06-30T03:29:10.415Z,16.55
2016-06-30T03:30:10.333Z,16.59
2016-06-30T03:31:10.265Z,16.57
2016-06-30T03:32:10.351Z,16.57
2016-06-30T03:33:10.666Z,16.51
2016-06-30T03:34:10.580Z,16.55
2016-06-30T03:47:11.853Z,16.49
2016-06-30T03:47:20.554Z,16.48
2016-06-30T03:48:19.473Z,16.47
2016-06-30T03:49:20.485Z,16.45
2016-06-30T03:50:20.195Z,16.44
2016-06-30T03:51:19.635Z,16.47
2016-06-30T03:52:19.583Z,16.42
2016-06-30T03:53:19.985Z,16.45
2016-06-30T03:54:19.969Z,16.36
2016-06-30T03:55:19.896Z,16.44
2016-06-30T03:56:20.489Z,16.37
2016-06-30T03:57:19.977Z,16.47
2016-06-30T03:58:20.186Z,16.45
2016-06-30T03:59:19.497Z,16.45
2016-06-30T04:00:20.193Z,16.49
2016-06-30T04:01:19.489Z,16.4
2016-06-30T04:02:19.601Z,16.36
2016-06-30T04:03:20.974Z,16.42
2016-06-30T04:04:19.663Z,16.44
2016-06-30T04:05:20.134Z,16.37
2016-06-30T04:06:19.689Z,16.42
2016-06-30T04:07:19.459Z,16.36
2016-06-30T04:08:19.624Z,16.37
2016-06-30T04:09:19.674Z,16.34
2016-06-30T04:10:21.229Z,16.37
2016-06-30T04:11:20.108Z,16.44
2016-06-30T04:12:19.567Z,16.42
2016-06-30T04:13:19.484Z,16.44
2016-06-30T04:14:19.781Z,16.42
2016-06-30T04:15:19.816Z,16.34
2016-06-30T04:16:19.789Z,16.36
2016-06-30T04:17:19.942Z,16.44
2016-06-30T04:18:19.723Z,16.37
2016-06-30T04:19:19.731Z,16.37
2016-06-30T04:20:19.697Z,16.37
2016-06-30T04:21:19.534Z,16.4
2016-06-30T04:22:19.752Z,16.32
2016-06-30T04:23:19.703Z,16.33
2016-06-30T04:24:19.748Z,16.3
2016-06-30T04:25:19.764Z,16.25
2016-06-30T04:26:19.896Z,16.18
2016-06-30T04:27:20.047Z,16.16
2016-06-30T04:28:20.104Z,16.14
2016-06-30T04:29:19.834Z,16.21
2016-06-30T04:30:19.642Z,16.18
2016-06-30T04:31:19.770Z,16.17
2016-06-30T04:32:21.182Z,16.22
2016-06-30T04:33:19.843Z,16.1
2016-06-30T04:34:20.252Z,16.11
2016-06-30T04:35:21.294Z,16.17
2016-06-30T04:36:19.726Z,16.16
2016-06-30T04:37:20.158Z,16.13
2016-06-30T04:38:20.074Z,16.16
2016-06-30T04:39:19.893Z,16.08
2016-06-30T04:40:19.839Z,16.08
2016-06-30T04:41:19.932Z,16.07
2016-06-30T04:42:20.217Z,15.92
2016-06-30T04:43:19.788Z,15.91
2016-06-30T04:44:20.309Z,15.86
2016-06-30T04:45:20.205Z,15.88
2016-06-30T04:46:20.930Z,15.6
2016-06-30T04:47:19.991Z,15.49
2016-06-30T04:48:19.498Z,15.35
2016-06-30T04:49:20.179Z,15.35
2016-06-30T04:50:19.872Z,15.41
2016-06-30T04:51:19.696Z,15.35
2016-06-30T04:52:20.497Z,15.31
2016-06-30T04:53:19.727Z,15.18
2016-06-30T04:54:19.938Z,15.23
2016-06-30T04:55:19.781Z,15.26
2016-06-30T04:56:19.610Z,15.25
2016-06-30T04:57:19.783Z,15.23
2016-06-30T04:58:19.625Z,15.2
2016-06-30T04:59:19.615Z,15.19
2016-06-30T05:00:19.755Z,15.23
2016-06-30T05:01:19.764Z,15.33
2016-06-30T05:02:19.639Z,15.26
2016-06-30T05:03:19.814Z,15.26
2016-06-30T05:04:19.666Z,15.22
2016-06-30T05:05:21.027Z,15.19
2016-06-30T05:06:19.852Z,15.15
2016-06-30T05:07:19.666Z,15.16
2016-06-30T05:08:19.654Z,15.19
2016-06-30T05:09:19.708Z,15.13
2016-06-30T05:10:20.102Z,15.07
2016-06-30T05:11:19.778Z,15.18
2016-06-30T05:12:20.042Z,15.08
2016-06-30T05:13:19.712Z,15.12
2016-06-30T05:14:19.816Z,15.01
2016-06-30T05:15:19.847Z,14.97
2016-06-30T05:16:20.016Z,15.12
2016-06-30T05:17:20.071Z,15.02
2016-06-30T05:18:20.265Z,15.05
2016-06-30T05:19:19.669Z,14.94
2016-06-30T05:20:19.688Z,14.94
2016-06-30T05:21:19.622Z,15.07
2016-06-30T05:22:19.781Z,15.05
2016-06-30T05:23:19.695Z,15.08
2016-06-30T05:24:19.844Z,15.1
2016-06-30T05:25:19.748Z,15.07
2016-06-30T05:26:19.941Z,15.02
2016-06-30T05:27:19.664Z,15
2016-06-30T05:28:19.713Z,15.02
2016-06-30T05:29:20.399Z,15.08
2016-06-30T05:30:19.805Z,14.98
2016-06-30T05:31:19.799Z,15.07
2016-06-30T05:32:19.919Z,15.12
2016-06-30T05:33:19.892Z,15.13
2016-06-30T05:34:19.707Z,15.18
2016-06-30T05:35:19.851Z,15.22
2016-06-30T05:36:19.757Z,15.23
2016-06-30T05:37:20.029Z,15.23
2016-06-30T05:38:19.766Z,15.33
2016-06-30T05:39:19.953Z,15.22
2016-06-30T05:40:19.698Z,15.34
2016-06-30T05:41:19.893Z,15.41
2016-06-30T05:42:19.812Z,15.35
2016-06-30T05:43:19.637Z,15.43
2016-06-30T05:44:19.796Z,15.4
2016-06-30T05:45:19.761Z,15.45
2016-06-30T05:46:19.772Z,15.49
2016-06-30T05:47:19.742Z,15.45
2016-06-30T05:48:19.835Z,15.56
2016-06-30T05:49:19.873Z,15.55
2016-06-30T05:50:19.858Z,15.47
2016-06-30T05:51:20.002Z,15.56
2016-06-30T05:52:20.335Z,15.53
2016-06-30T05:53:19.841Z,15.58
2016-06-30T05:54:19.674Z,15.55
2016-06-30T05:55:19.822Z,15.58
2016-06-30T05:56:19.805Z,15.51
2016-06-30T05:57:19.837Z,15.59
2016-06-30T05:58:19.760Z,15.6
2016-06-30T05:59:19.742Z,15.62
2016-06-30T06:00:19.705Z,15.62
2016-06-30T06:01:19.711Z,15.62
2016-06-30T06:02:19.745Z,15.68
2016-06-30T06:03:19.719Z,15.67
2016-06-30T06:04:19.901Z,15.71
2016-06-30T06:05:20.313Z,15.7
2016-06-30T06:06:20.022Z,15.7
2016-06-30T06:07:20.774Z,15.73
2016-06-30T06:08:20.270Z,15.75
2016-06-30T06:09:19.912Z,15.73
2016-06-30T06:10:19.922Z,15.77
2016-06-30T06:11:20.075Z,15.75
2016-06-30T06:12:20.117Z,15.86
2016-06-30T06:13:19.937Z,15.73
2016-06-30T06:14:19.928Z,15.83
2016-06-30T06:15:20.053Z,15.89
2016-06-30T06:16:20.645Z,15.86
2016-06-30T06:17:19.938Z,15.88
2016-06-30T06:18:19.829Z,15.92
2016-06-30T06:19:20.008Z,15.93
2016-06-30T06:20:19.822Z,15.92
2016-06-30T06:21:19.765Z,15.92
2016-06-30T06:22:19.745Z,15.89
2016-06-30T06:23:19.772Z,16
2016-06-30T06:24:19.839Z,15.99
2016-06-30T06:25:19.854Z,15.96
2016-06-30T06:26:19.850Z,15.99
2016-06-30T06:27:19.846Z,16
2016-06-30T06:28:19.767Z,16.06
2016-06-30T06:29:19.858Z,16.04
2016-06-30T06:30:19.823Z,15.99
2016-06-30T06:31:19.924Z,16.04
2016-06-30T06:32:19.871Z,16.07
2016-06-30T06:33:19.869Z,16.07
2016-06-30T06:34:19.971Z,15.93
2016-06-30T06:35:19.938Z,16.1
2016-06-30T06:36:19.840Z,16.07
2016-06-30T06:37:19.855Z,16.07
2016-06-30T06:38:20.006Z,16.07
2016-06-30T06:39:19.918Z,16.16
2016-06-30T06:40:19.863Z,16.04
2016-06-30T06:41:20.109Z,16.17
2016-06-30T06:42:19.909Z,16.17
2016-06-30T06:43:19.961Z,16.08
2016-06-30T06:44:20.659Z,16.17
2016-06-30T06:45:19.887Z,16.1
2016-06-30T06:46:19.850Z,16.29
2016-06-30T06:47:19.881Z,16.18
2016-06-30T06:48:19.906Z,16.25
2016-06-30T06:49:19.869Z,16.21
2016-06-30T06:50:20.903Z,16.17
2016-06-30T06:51:20.481Z,16.27
2016-06-30T06:52:19.854Z,16.42
2016-06-30T06:53:19.988Z,16.36
2016-06-30T06:54:19.895Z,16.39
2016-06-30T06:55:20.146Z,16.36
2016-06-30T06:56:20.064Z,16.47
2016-06-30T06:57:19.951Z,16.47
2016-06-30T06:58:20.762Z,16.55
2016-06-30T06:59:19.988Z,16.65
2016-06-30T07:00:19.945Z,16.55
2016-06-30T07:01:19.896Z,16.72
2016-06-30T07:02:19.936Z,16.69
2016-06-30T07:03:20.099Z,16.74
2016-06-30T07:04:20.248Z,16.54
2016-06-30T07:05:20.052Z,16.52
2016-06-30T07:06:19.991Z,16.69
2016-06-30T07:07:20.083Z,16.7
2016-06-30T07:08:20.782Z,16.77
2016-06-30T07:09:19.909Z,16.77
2016-06-30T07:10:19.899Z,16.72
2016-06-30T07:11:19.980Z,16.7
2016-06-30T07:12:19.980Z,16.7
2016-06-30T07:13:20.008Z,16.8
2016-06-30T07:14:20.899Z,16.74
2016-06-30T07:15:20.023Z,16.81
2016-06-30T07:16:19.935Z,16.87
2016-06-30T07:17:19.910Z,16.88
2016-06-30T07:18:19.902Z,16.74
2016-06-30T07:19:19.823Z,16.82
2016-06-30T07:20:22.146Z,16.9
2016-06-30T07:21:19.873Z,16.92
2016-06-30T07:34:21.267Z,16.88
2016-06-30T07:34:28.262Z,16.97
2016-06-30T07:35:28.261Z,17.06
2016-06-30T07:36:28.231Z,16.97
2016-06-30T07:37:36.080Z,16.95
2016-06-30T07:38:30.579Z,16.92
2016-06-30T07:39:28.247Z,16.99
2016-06-30T07:40:28.303Z,17.07
2016-06-30T07:41:28.317Z,17
2016-06-30T07:42:28.390Z,17
2016-06-30T07:43:28.401Z,16.94
2016-06-30T07:44:28.263Z,17.02
2016-06-30T07:45:28.377Z,17.05
2016-06-30T07:46:30.088Z,17.03
2016-06-30T07:47:28.484Z,17.06
2016-06-30T07:48:28.263Z,17.22
2016-06-30T07:49:28.252Z,17.12
2016-06-30T07:50:28.367Z,17.15
2016-06-30T07:51:28.355Z,17.24
2016-06-30T07:52:28.294Z,17.12
2016-06-30T07:53:28.283Z,17.24
2016-06-30T07:54:29.178Z,17.22
2016-06-30T07:55:28.280Z,17.1
2016-06-30T07:56:28.323Z,17.09
2016-06-30T07:57:28.420Z,17.02
2016-06-30T07:58:28.351Z,17.17
2016-06-30T07:59:28.267Z,17.13
2016-06-30T08:00:28.358Z,17.06
2016-06-30T08:01:28.259Z,17.09
2016-06-30T08:02:28.272Z,17.12
2016-06-30T08:03:28.288Z,17.13
2016-06-30T08:04:28.287Z,17.12
2016-06-30T08:05:28.384Z,17.27
2016-06-30T08:06:28.279Z,17.32
2016-06-30T08:07:28.310Z,17.27
2016-06-30T08:08:28.377Z,17.18
2016-06-30T08:09:28.444Z,17.32
2016-06-30T08:10:28.314Z,17.46
2016-06-30T08:11:28.358Z,17.52
2016-06-30T08:12:28.333Z,17.45
2016-06-30T08:13:28.341Z,17.92
2016-06-30T08:14:28.320Z,17.88
2016-06-30T08:15:28.346Z,17.94
2016-06-30T08:16:28.337Z,17.77
2016-06-30T08:17:28.355Z,17.76
2016-06-30T08:18:28.292Z,17.69
2016-06-30T08:19:28.389Z,17.62
2016-06-30T08:20:28.443Z,17.58
2016-06-30T08:21:29.087Z,17.8
2016-06-30T08:22:28.358Z,17.88
2016-06-30T08:23:28.378Z,17.87
2016-06-30T08:24:28.333Z,17.69
2016-06-30T08:25:28.362Z,17.94
2016-06-30T08:26:28.350Z,18.08
2016-06-30T08:27:29.027Z,17.77
2016-06-30T08:34:58.319Z,17.52
2016-06-30T08:35:05.378Z,17.54
2016-06-30T08:36:05.351Z,17.62
2016-06-30T08:37:05.378Z,17.54
2016-06-30T08:38:05.380Z,17.55
2016-06-30T08:39:05.351Z,17.47
2016-06-30T08:40:05.326Z,17.58
2016-06-30T08:41:05.404Z,17.55
2016-06-30T08:42:05.339Z,17.42
2016-06-30T08:43:05.326Z,17.46
2016-06-30T08:44:05.384Z,17.52
2016-06-30T08:45:05.348Z,17.47
2016-06-30T08:46:05.320Z,17.49
2016-06-30T08:47:05.339Z,17.42
2016-06-30T08:48:05.407Z,17.4
2016-06-30T08:49:05.343Z,17.43
2016-06-30T08:50:05.336Z,17.38
2016-06-30T08:51:05.418Z,17.39
2016-06-30T08:52:05.380Z,17.39
2016-06-30T08:53:05.371Z,17.39
2016-06-30T08:54:05.563Z,17.42
2016-06-30T08:55:05.394Z,17.35
2016-06-30T08:56:05.379Z,17.38
2016-06-30T08:57:05.362Z,17.35
2016-06-30T08:58:05.399Z,17.38
2016-06-30T08:59:05.365Z,17.39
2016-06-30T09:00:05.424Z,17.45
2016-06-30T09:01:05.638Z,17.45
2016-06-30T09:02:05.619Z,17.46
2016-06-30T09:03:05.614Z,17.57
2016-06-30T09:04:05.530Z,17.55
2016-06-30T09:05:05.538Z,17.66
2016-06-30T09:06:05.607Z,17.66
2016-06-30T09:07:05.507Z,17.74
2016-06-30T09:08:05.684Z,17.74
2016-06-30T09:09:05.513Z,17.88
2016-06-30T09:10:05.582Z,17.88
2016-06-30T09:11:05.555Z,17.96
2016-06-30T09:16:24.043Z,18.01
2016-06-30T09:16:30.981Z,18.02
2016-06-30T09:17:31.048Z,18.03
2016-06-30T09:18:30.983Z,17.92
2016-06-30T09:19:30.973Z,17.81
2016-06-30T09:20:31.025Z,17.86
2016-06-30T09:21:30.983Z,17.86
2016-06-30T09:22:31.145Z,17.81
2016-06-30T09:23:31.125Z,17.9
2016-06-30T09:24:31.183Z,17.84
2016-06-30T09:25:31.223Z,17.77
2016-06-30T09:26:31.093Z,17.79
2016-06-30T09:27:31.213Z,17.79
2016-06-30T09:28:31.186Z,17.87
2016-06-30T09:29:31.316Z,17.69
2016-06-30T09:30:31.141Z,17.5
2016-06-30T09:31:31.055Z,17.6
2016-06-30T09:32:31.085Z,17.68
2016-06-30T09:33:31.576Z,17.65
2016-06-30T09:34:31.041Z,17.6
2016-06-30T09:35:31.129Z,17.62
2016-06-30T09:36:31.171Z,17.77
2016-06-30T09:37:31.064Z,17.8
2016-06-30T09:38:31.110Z,17.77
2016-06-30T09:39:31.039Z,17.74
2016-06-30T09:40:31.141Z,17.66
2016-06-30T09:41:31.172Z,17.74
2016-06-30T09:42:31.045Z,17.88
2016-06-30T09:43:31.120Z,17.9
2016-06-30T09:44:31.051Z,18.02
2016-06-30T09:45:31.066Z,18.05
2016-06-30T09:46:31.063Z,17.99
2016-06-30T09:47:31.075Z,18.06
2016-06-30T09:48:31.090Z,18.29
2016-06-30T09:49:31.137Z,18.34
2016-06-30T09:50:31.121Z,18.71
2016-06-30T09:51:31.102Z,18.84
2016-06-30T09:52:31.102Z,19.28
2016-06-30T09:53:31.026Z,19.47
2016-06-30T09:54:31.158Z,19.92
2016-06-30T09:55:31.131Z,19.67
2016-06-30T09:56:31.083Z,19.89
2016-06-30T09:57:31.077Z,19.24
2016-06-30T09:58:31.337Z,19.19
2016-06-30T09:59:31.110Z,19.2
2016-06-30T10:00:31.089Z,18.97
2016-06-30T10:01:31.055Z,18.93
2016-06-30T10:02:31.155Z,18.97
2016-06-30T10:03:31.196Z,18.74
2016-06-30T10:04:31.761Z,18.79
2016-06-30T10:05:31.177Z,18.79
2016-06-30T10:06:31.118Z,18.68
2016-06-30T10:07:31.196Z,18.44
2016-06-30T10:08:31.131Z,18.56
2016-06-30T10:09:31.124Z,18.51
2016-06-30T10:10:31.151Z,18.57
2016-06-30T10:11:31.276Z,18.6
2016-06-30T10:12:31.109Z,18.69
2016-06-30T10:13:31.124Z,18.68
2016-06-30T10:14:31.093Z,18.51
2016-06-30T10:15:31.166Z,18.57
2016-06-30T10:16:31.153Z,18.57
2016-06-30T10:17:31.156Z,18.49
2016-06-30T10:18:31.135Z,18.44
2016-06-30T10:19:31.179Z,18.34
2016-06-30T10:20:31.099Z,18.32
2016-06-30T10:21:31.237Z,18.31
2016-06-30T10:22:31.217Z,18.29
2016-06-30T10:23:31.107Z,18.32
2016-06-30T10:24:31.187Z,18.29
2016-06-30T10:25:31.203Z,18.35
2016-06-30T10:26:31.195Z,18.23
2016-06-30T10:27:31.315Z,18.29
2016-06-30T10:28:31.118Z,18.16
2016-06-30T10:29:31.154Z,18.08
2016-06-30T10:30:31.229Z,18.08
2016-06-30T10:31:31.246Z,18.14
2016-06-30T10:32:31.200Z,18.17
2016-06-30T10:33:31.154Z,18.14
2016-06-30T10:34:31.215Z,18.24
2016-06-30T10:35:31.394Z,18.1
2016-06-30T10:36:31.199Z,18.14
2016-06-30T10:37:31.177Z,18.06
2016-06-30T10:38:31.217Z,18.21
2016-06-30T10:39:31.147Z,18.23
2016-06-30T10:40:31.176Z,18.26
2016-06-30T10:41:31.245Z,18.41
2016-06-30T10:42:31.210Z,18.6
2016-06-30T10:43:31.287Z,18.66
2016-06-30T10:44:31.293Z,18.68
2016-06-30T10:45:31.292Z,19.13
2016-06-30T10:46:31.226Z,19.55
2016-06-30T10:47:31.233Z,19.89
2016-06-30T10:48:31.237Z,20.01
2016-06-30T10:49:31.307Z,20
2016-06-30T10:50:31.214Z,20.01
2016-06-30T10:51:31.251Z,19.75
2016-06-30T10:52:31.247Z,19.79
2016-06-30T10:53:31.230Z,19.75
2016-06-30T10:54:31.230Z,19.78
2016-06-30T10:55:31.240Z,19.52
2016-06-30T10:56:31.233Z,19.4
2016-06-30T10:57:31.294Z,19.46
2016-06-30T10:58:31.312Z,19.42
2016-06-30T10:59:31.293Z,19.2
2016-06-30T11:00:31.240Z,18.96
2016-06-30T11:01:31.246Z,18.96
2016-06-30T11:02:31.398Z,18.84
2016-06-30T11:03:31.352Z,18.99
2016-06-30T11:04:31.389Z,18.97
2016-06-30T11:05:31.280Z,19.06
2016-06-30T11:06:31.395Z,19.16
2016-06-30T11:07:31.304Z,19.12
2016-06-30T11:08:31.338Z,19.15
2016-06-30T11:09:31.264Z,19.35
2016-06-30T11:10:31.546Z,19.47
2016-06-30T11:11:31.438Z,19.37
2016-06-30T11:12:31.323Z,19.37
2016-06-30T11:13:31.244Z,19.43
2016-06-30T11:14:31.322Z,19.49
2016-06-30T11:15:31.277Z,19.68
2016-06-30T11:16:31.271Z,19.92
2016-06-30T11:17:31.332Z,19.86
2016-06-30T11:18:31.272Z,19.86
2016-06-30T11:19:31.279Z,19.98
2016-06-30T11:20:31.289Z,19.71
2016-06-30T11:21:31.286Z,19.8
2016-06-30T11:22:31.316Z,19.53
2016-06-30T11:23:31.258Z,19.53
2016-06-30T11:24:31.421Z,19.5
2016-06-30T11:25:31.381Z,19.52
2016-06-30T11:26:32.019Z,19.53
2016-06-30T11:27:31.503Z,19.53
2016-06-30T11:28:31.308Z,19.55
2016-06-30T11:29:31.319Z,19.52
2016-06-30T11:30:31.375Z,19.57
2016-06-30T11:31:31.398Z,19.61
2016-06-30T11:32:31.345Z,19.28
2016-06-30T11:33:31.380Z,19.45
2016-06-30T11:34:31.328Z,19.45
2016-06-30T11:35:31.395Z,19.61
2016-06-30T11:36:31.314Z,19.71
2016-06-30T11:37:31.327Z,19.7
2016-06-30T11:38:31.374Z,19.79
2016-06-30T11:39:31.398Z,20.12
2016-06-30T11:40:31.367Z,20.42
2016-06-30T11:41:31.343Z,20.16
2016-06-30T11:42:31.329Z,20.07
2016-06-30T11:43:31.521Z,19.95
2016-06-30T11:44:31.399Z,19.98
2016-06-30T11:45:31.396Z,20.01
2016-06-30T11:46:32.213Z,19.93
2016-06-30T11:47:31.427Z,19.75
2016-06-30T11:48:31.396Z,19.7
2016-06-30T11:49:31.391Z,19.52
2016-06-30T11:50:31.322Z,19.47
2016-06-30T11:51:31.364Z,19.46
2016-06-30T11:52:31.379Z,19.53
2016-06-30T11:53:31.411Z,19.47
2016-06-30T11:54:31.405Z,19.31
2016-06-30T11:55:31.374Z,19.25
2016-06-30T11:56:31.400Z,19.1
2016-06-30T11:57:31.369Z,19.12
2016-06-30T11:58:31.378Z,19
2016-06-30T11:59:31.366Z,18.82
2016-06-30T12:00:31.484Z,18.86
2016-06-30T12:01:31.353Z,18.9
2016-06-30T12:02:31.378Z,18.84
2016-06-30T12:03:31.445Z,18.74
2016-06-30T12:04:31.378Z,18.78
2016-06-30T12:05:31.430Z,18.78
2016-06-30T12:06:31.379Z,18.81
2016-06-30T12:07:31.682Z,18.82
2016-06-30T12:08:32.111Z,18.82
2016-06-30T12:09:31.507Z,18.79
2016-06-30T12:10:31.449Z,18.81
2016-06-30T12:11:31.420Z,18.84
2016-06-30T12:12:31.488Z,19.02
2016-06-30T12:13:31.408Z,19.23
2016-06-30T12:14:31.437Z,19.23
2016-06-30T12:27:32.563Z,19.49
2016-06-30T12:27:40.216Z,19.5
2016-06-30T12:28:40.162Z,19.6
2016-06-30T12:29:40.162Z,19.64
2016-06-30T12:30:40.946Z,19.43
2016-06-30T12:31:40.307Z,19.38
2016-06-30T12:32:40.675Z,19.46
2016-06-30T12:33:41.019Z,19.53
2016-06-30T12:34:40.231Z,19.57
2016-06-30T12:35:40.279Z,19.65
2016-06-30T12:36:40.198Z,19.68
2016-06-30T12:37:40.207Z,19.5
2016-06-30T12:38:40.246Z,19.4
2016-06-30T12:39:40.214Z,19.55
2016-06-30T12:40:40.186Z,19.55
2016-06-30T12:41:40.190Z,19.42
2016-06-30T12:42:40.244Z,19.32
2016-06-30T12:43:40.521Z,19.5
2016-06-30T12:44:40.243Z,19.68
2016-06-30T12:45:40.250Z,19.63
2016-06-30T12:46:40.288Z,19.64
2016-06-30T12:47:40.306Z,19.78
2016-06-30T12:48:40.242Z,19.74
2016-06-30T12:49:40.177Z,19.47
2016-06-30T12:50:40.245Z,19.52
2016-06-30T12:51:40.291Z,19.72
2016-06-30T12:52:40.255Z,20.07
2016-06-30T12:53:40.256Z,20.53
2016-06-30T12:54:40.232Z,20.81
2016-06-30T12:55:40.243Z,20.78
2016-06-30T12:56:40.221Z,20.82
2016-06-30T12:57:40.265Z,20.74
2016-06-30T12:58:40.220Z,20.93
2016-06-30T12:59:40.182Z,21.19
2016-06-30T13:00:40.189Z,21.28
2016-06-30T13:01:40.202Z,20.93
2016-06-30T13:02:40.229Z,20.98
2016-06-30T13:03:40.261Z,20.74
2016-06-30T13:04:40.242Z,20.61
2016-06-30T13:05:40.242Z,20.67
2016-06-30T13:06:40.278Z,20.63
2016-06-30T13:07:40.257Z,20.72
2016-06-30T13:08:40.280Z,20.6
2016-06-30T13:09:40.226Z,20.6
2016-06-30T13:10:40.303Z,20.01
2016-06-30T13:11:40.282Z,19.82
2016-06-30T13:12:40.274Z,19.71
2016-06-30T13:13:40.315Z,19.6
2016-06-30T13:14:40.346Z,19.56
2016-06-30T13:15:40.334Z,19.61
2016-06-30T13:16:40.280Z,19.68
2016-06-30T13:17:40.323Z,19.47
2016-06-30T13:18:40.321Z,19.47
2016-06-30T13:19:40.363Z,19.56
2016-06-30T13:20:40.340Z,19.52
2016-06-30T13:21:40.330Z,19.57
2016-06-30T13:22:40.324Z,19.6
2016-06-30T13:23:40.385Z,19.72
2016-06-30T13:24:40.341Z,19.83
2016-06-30T13:25:40.338Z,19.89
2016-06-30T13:26:40.257Z,19.68
2016-06-30T13:27:40.370Z,19.6
2016-06-30T13:28:40.374Z,19.45
2016-06-30T13:29:40.263Z,19.47
2016-06-30T13:30:40.318Z,19.46
2016-06-30T13:31:40.338Z,19.4
2016-06-30T13:32:40.350Z,19.42
2016-06-30T13:33:40.311Z,19.49
2016-06-30T13:34:40.282Z,19.38
2016-06-30T13:35:40.397Z,19.35
2016-06-30T13:36:40.360Z,19.25
2016-06-30T13:37:40.370Z,19.32